sensor_id;sensor_type;location;lat;lon;timestamp;P1;durP1;ratioP1;P2;durP2;ratioP2
2564;SDS011;1292;48.020;7.822;2023-01-29T06:47:43;12.47;;;7.70;;
2564;SDS011;1292;48.020;7.822;2023-01-29T06:50:10;8.10;;;6.57;;
2564;SDS011;1292;48.020;7.822;2023-01-29T06:52:37;10.20;;;8.00;;
2564;SDS011;1292;48.020;7.822;2023-01-29T06:55:04;13.90;;;8.90;;
2564;SDS011;1292;48.020;7.822;2023-01-29T06:57:32;12.40;;;8.50;;
2564;SDS011;1292;48.020;7.822;2023-01-29T06:59:59;12.20;;;7.70;;
2564;SDS011;1292;48.020;7.822;2023-01-29T07:02:25;11.33;;;7.97;;
2564;SDS011;1292;48.020;7.822;2023-01-29T07:04:53;11.17;;;8.67;;
2564;SDS011;1292;48.020;7.822;2023-01-29T07:07:20;14.27;;;8.60;;
2564;SDS011;1292;48.020;7.822;2023-01-29T07:09:47;10.73;;;7.70;;
2564;SDS011;1292;48.020;7.822;2023-01-29T07:12:15;12.17;;;8.00;;
2564;SDS011;1292;48.020;7.822;2023-01-29T07:14:42;11.30;;;7.17;;
2564;SDS011;1292;48.020;7.822;2023-01-29T07:17:09;12.80;;;8.30;;
2564;SDS011;1292;48.020;7.822;2023-01-29T07:19:36;10.67;;;7.37;;
2564;SDS011;1292;48.020;7.822;2023-01-29T07:22:04;12.40;;;8.70;;
2564;SDS011;1292;48.020;7.822;2023-01-29T07:24:31;12.70;;;7.97;;
2564;SDS011;1292;48.020;7.822;2023-01-29T07:26:58;11.40;;;8.33;;
2564;SDS011;1292;48.020;7.822;2023-01-29T07:29:25;9.83;;;8.03;;
2564;SDS011;1292;48.020;7.822;2023-01-29T07:31:52;14.23;;;8.57;;
2564;SDS011;1292;48.020;7.822;2023-01-29T07:34:18;14.33;;;7.83;;
2564;SDS011;1292;48.020;7.822;2023-01-29T07:36:45;10.53;;;7.40;;
2564;SDS011;1292;48.020;7.822;2023-01-29T07:39:14;13.87;;;9.00;;
2564;SDS011;1292;48.020;7.822;2023-01-29T07:41:41;11.23;;;8.07;;
2564;SDS011;1292;48.020;7.822;2023-01-29T07:44:08;10.27;;;7.97;;
2564;SDS011;1292;48.020;7.822;2023-01-29T07:46:34;10.30;;;7.33;;
2564;SDS011;1292;48.020;7.822;2023-01-29T07:49:01;14.63;;;9.50;;
2564;SDS011;1292;48.020;7.822;2023-01-29T07:51:28;12.93;;;8.07;;
2564;SDS011;1292;48.020;7.822;2023-01-29T07:53:55;11.47;;;8.47;;
2564;SDS011;1292;48.020;7.822;2023-01-29T07:56:23;10.63;;;6.83;;
2564;SDS011;1292;48.020;7.822;2023-01-29T07:58:50;14.73;;;10.17;;
2564;SDS011;1292;48.020;7.822;2023-01-29T08:01:17;11.20;;;8.80;;
2564;SDS011;1292;48.020;7.822;2023-01-29T08:03:44;12.40;;;9.40;;
2564;SDS011;1292;48.020;7.822;2023-01-29T08:06:11;21.10;;;9.47;;
2564;SDS011;1292;48.020;7.822;2023-01-29T08:08:38;14.57;;;9.83;;
2564;SDS011;1292;48.020;7.822;2023-01-29T08:11:04;14.37;;;9.50;;
2564;SDS011;1292;48.020;7.822;2023-01-29T08:13:33;16.50;;;9.90;;
2564;SDS011;1292;48.020;7.822;2023-01-29T08:16:00;14.33;;;9.80;;
2564;SDS011;1292;48.020;7.822;2023-01-29T08:18:28;16.07;;;10.87;;
2564;SDS011;1292;48.020;7.822;2023-01-29T08:20:57;17.23;;;10.60;;
2564;SDS011;1292;48.020;7.822;2023-01-29T08:23:25;12.70;;;9.13;;
2564;SDS011;1292;48.020;7.822;2023-01-29T08:25:52;13.40;;;8.97;;
2564;SDS011;1292;48.020;7.822;2023-01-29T08:28:19;11.20;;;8.10;;
2564;SDS011;1292;48.020;7.822;2023-01-29T08:30:47;14.40;;;8.70;;
2564;SDS011;1292;48.020;7.822;2023-01-29T08:33:14;9.90;;;7.80;;
2564;SDS011;1292;48.020;7.822;2023-01-29T08:35:41;13.10;;;9.33;;
2564;SDS011;1292;48.020;7.822;2023-01-29T08:38:08;10.93;;;8.53;;
2564;SDS011;1292;48.020;7.822;2023-01-29T08:40:35;12.10;;;8.37;;
2564;SDS011;1292;48.020;7.822;2023-01-29T08:43:03;11.27;;;7.87;;
2564;SDS011;1292;48.020;7.822;2023-01-29T08:45:32;13.10;;;8.37;;
2564;SDS011;1292;48.020;7.822;2023-01-29T08:48:02;12.57;;;9.60;;
2564;SDS011;1292;48.020;7.822;2023-01-29T08:50:30;12.07;;;8.00;;
2564;SDS011;1292;48.020;7.822;2023-01-29T08:52:59;10.20;;;7.70;;
2564;SDS011;1292;48.020;7.822;2023-01-29T08:55:28;14.20;;;8.10;;
2564;SDS011;1292;48.020;7.822;2023-01-29T08:57:55;11.60;;;8.70;;
2564;SDS011;1292;48.020;7.822;2023-01-29T09:00:22;13.30;;;9.40;;
2564;SDS011;1292;48.020;7.822;2023-01-29T09:02:49;12.63;;;8.63;;
2564;SDS011;1292;48.020;7.822;2023-01-29T09:05:17;13.27;;;8.70;;
2564;SDS011;1292;48.020;7.822;2023-01-29T09:07:44;12.77;;;7.93;;
2564;SDS011;1292;48.020;7.822;2023-01-29T09:10:11;11.57;;;8.40;;
2564;SDS011;1292;48.020;7.822;2023-01-29T09:12:38;11.70;;;8.57;;
2564;SDS011;1292;48.020;7.822;2023-01-29T09:15:05;11.60;;;7.70;;
2564;SDS011;1292;48.020;7.822;2023-01-29T09:17:33;10.87;;;8.20;;
2564;SDS011;1292;48.020;7.822;2023-01-29T09:19:59;10.87;;;8.60;;
2564;SDS011;1292;48.020;7.822;2023-01-29T09:22:28;13.17;;;8.90;;
2564;SDS011;1292;48.020;7.822;2023-01-29T09:24:55;14.67;;;9.90;;
2564;SDS011;1292;48.020;7.822;2023-01-29T09:27:22;14.20;;;9.17;;
2564;SDS011;1292;48.020;7.822;2023-01-29T09:29:49;14.60;;;8.30;;
2564;SDS011;1292;48.020;7.822;2023-01-29T09:32:16;15.80;;;8.17;;
2564;SDS011;1292;48.020;7.822;2023-01-29T09:34:42;10.40;;;8.30;;
2564;SDS011;1292;48.020;7.822;2023-01-29T09:37:09;10.13;;;8.30;;
2564;SDS011;1292;48.020;7.822;2023-01-29T09:39:37;13.90;;;8.33;;
2564;SDS011;1292;48.020;7.822;2023-01-29T09:42:07;11.43;;;7.70;;
2564;SDS011;1292;48.020;7.822;2023-01-29T09:44:44;11.60;;;8.87;;
2564;SDS011;1292;48.020;7.822;2023-01-29T09:47:17;13.13;;;9.00;;
2564;SDS011;1292;48.020;7.822;2023-01-29T09:49:46;13.13;;;8.47;;
2564;SDS011;1292;48.020;7.822;2023-01-29T09:52:16;13.90;;;9.93;;
2564;SDS011;1292;48.020;7.822;2023-01-29T09:54:50;10.50;;;9.30;;
2564;SDS011;1292;48.020;7.822;2023-01-29T09:57:23;13.10;;;8.50;;
2564;SDS011;1292;48.020;7.822;2023-01-29T09:59:54;15.00;;;9.27;;
2564;SDS011;1292;48.020;7.822;2023-01-29T10:02:26;11.10;;;7.10;;
2564;SDS011;1292;48.020;7.822;2023-01-29T10:05:15;14.17;;;8.13;;
2564;SDS011;1292;48.020;7.822;2023-01-29T10:10:53;9.93;;;7.83;;
2564;SDS011;1292;48.020;7.822;2023-01-29T10:13:26;10.70;;;7.63;;
2564;SDS011;1292;48.020;7.822;2023-01-29T10:16:04;16.23;;;8.10;;
2564;SDS011;1292;48.020;7.822;2023-01-29T10:21:57;22.60;;;10.97;;
2564;SDS011;1292;48.020;7.822;2023-01-29T10:24:45;11.80;;;8.73;;
2564;SDS011;1292;48.020;7.822;2023-01-29T10:27:20;10.40;;;7.90;;
2564;SDS011;1292;48.020;7.822;2023-01-29T10:29:50;10.40;;;7.17;;
2564;SDS011;1292;48.020;7.822;2023-01-29T10:32:21;8.93;;;7.50;;
2564;SDS011;1292;48.020;7.822;2023-01-29T10:34:51;13.60;;;8.27;;
2564;SDS011;1292;48.020;7.822;2023-01-29T10:37:21;12.70;;;8.73;;
2564;SDS011;1292;48.020;7.822;2023-01-29T10:39:51;10.40;;;7.57;;
2564;SDS011;1292;48.020;7.822;2023-01-29T10:42:25;10.97;;;7.57;;
2564;SDS011;1292;48.020;7.822;2023-01-29T10:45:02;12.30;;;9.50;;
2564;SDS011;1292;48.020;7.822;2023-01-29T10:47:43;9.57;;;8.23;;
2564;SDS011;1292;48.020;7.822;2023-01-29T10:50:42;10.07;;;7.00;;
2564;SDS011;1292;48.020;7.822;2023-01-29T10:56:07;9.40;;;6.27;;
2564;SDS011;1292;48.020;7.822;2023-01-29T10:58:47;8.30;;;5.43;;
2564;SDS011;1292;48.020;7.822;2023-01-29T11:01:16;8.40;;;5.13;;
2564;SDS011;1292;48.020;7.822;2023-01-29T11:03:43;8.53;;;5.50;;
2564;SDS011;1292;48.020;7.822;2023-01-29T11:06:11;8.03;;;6.17;;
2564;SDS011;1292;48.020;7.822;2023-01-29T11:08:45;10.23;;;6.73;;
2564;SDS011;1292;48.020;7.822;2023-01-29T11:11:18;7.00;;;5.43;;
2564;SDS011;1292;48.020;7.822;2023-01-29T11:13:49;9.17;;;6.20;;
2564;SDS011;1292;48.020;7.822;2023-01-29T11:16:21;7.77;;;5.27;;
2564;SDS011;1292;48.020;7.822;2023-01-29T11:18:49;7.87;;;5.33;;
2564;SDS011;1292;48.020;7.822;2023-01-29T11:21:21;8.17;;;5.67;;
2564;SDS011;1292;48.020;7.822;2023-01-29T11:23:49;9.67;;;6.77;;
2564;SDS011;1292;48.020;7.822;2023-01-29T11:26:32;5.27;;;4.77;;
2564;SDS011;1292;48.020;7.822;2023-01-29T11:29:01;3.17;;;2.60;;
2564;SDS011;1292;48.020;7.822;2023-01-29T11:31:33;4.40;;;3.53;;
2564;SDS011;1292;48.020;7.822;2023-01-29T11:34:05;9.93;;;7.40;;
2564;SDS011;1292;48.020;7.822;2023-01-29T11:36:39;9.47;;;6.10;;
2564;SDS011;1292;48.020;7.822;2023-01-29T11:39:17;8.30;;;5.80;;
2564;SDS011;1292;48.020;7.822;2023-01-29T11:41:49;6.50;;;5.37;;
2564;SDS011;1292;48.020;7.822;2023-01-29T11:44:25;9.47;;;4.80;;
2564;SDS011;1292;48.020;7.822;2023-01-29T11:46:58;7.83;;;5.30;;
2564;SDS011;1292;48.020;7.822;2023-01-29T11:49:44;4.20;;;3.40;;
2564;SDS011;1292;48.020;7.822;2023-01-29T11:52:14;4.10;;;3.47;;
2564;SDS011;1292;48.020;7.822;2023-01-29T11:54:44;7.70;;;5.37;;
2564;SDS011;1292;48.020;7.822;2023-01-29T11:57:20;5.40;;;4.20;;
2564;SDS011;1292;48.020;7.822;2023-01-29T11:59:52;6.03;;;4.00;;
2564;SDS011;1292;48.020;7.822;2023-01-29T12:02:22;5.03;;;4.10;;
2564;SDS011;1292;48.020;7.822;2023-01-29T12:04:55;3.53;;;3.23;;
2564;SDS011;1292;48.020;7.822;2023-01-29T12:07:25;6.00;;;4.47;;
2564;SDS011;1292;48.020;7.822;2023-01-29T12:09:53;6.17;;;4.83;;
2564;SDS011;1292;48.020;7.822;2023-01-29T12:15:17;7.50;;;5.83;;
2564;SDS011;1292;48.020;7.822;2023-01-29T12:18:00;7.20;;;4.80;;
2564;SDS011;1292;48.020;7.822;2023-01-29T12:20:33;6.23;;;4.30;;
2564;SDS011;1292;48.020;7.822;2023-01-29T12:23:09;6.53;;;4.30;;
2564;SDS011;1292;48.020;7.822;2023-01-29T12:25:47;6.87;;;4.70;;
2564;SDS011;1292;48.020;7.822;2023-01-29T12:28:23;9.00;;;5.80;;
2564;SDS011;1292;48.020;7.822;2023-01-29T12:31:03;5.70;;;4.77;;
2564;SDS011;1292;48.020;7.822;2023-01-29T12:33:40;5.20;;;4.27;;
2564;SDS011;1292;48.020;7.822;2023-01-29T12:36:16;5.17;;;4.63;;
2564;SDS011;1292;48.020;7.822;2023-01-29T12:38:48;7.97;;;5.00;;
2564;SDS011;1292;48.020;7.822;2023-01-29T12:41:22;9.73;;;5.70;;
2564;SDS011;1292;48.020;7.822;2023-01-29T12:43:56;6.10;;;4.80;;
2564;SDS011;1292;48.020;7.822;2023-01-29T12:46:30;13.40;;;7.97;;
2564;SDS011;1292;48.020;7.822;2023-01-29T12:49:03;8.20;;;5.43;;
2564;SDS011;1292;48.020;7.822;2023-01-29T12:51:36;9.67;;;5.20;;
2564;SDS011;1292;48.020;7.822;2023-01-29T12:54:08;6.83;;;5.50;;
2564;SDS011;1292;48.020;7.822;2023-01-29T12:56:40;8.20;;;5.93;;
2564;SDS011;1292;48.020;7.822;2023-01-29T12:59:12;6.47;;;5.00;;
2564;SDS011;1292;48.020;7.822;2023-01-29T13:01:45;7.93;;;5.73;;
2564;SDS011;1292;48.020;7.822;2023-01-29T13:04:18;6.90;;;5.37;;
2564;SDS011;1292;48.020;7.822;2023-01-29T13:06:58;7.90;;;5.07;;
2564;SDS011;1292;48.020;7.822;2023-01-29T13:09:33;5.70;;;4.97;;
2564;SDS011;1292;48.020;7.822;2023-01-29T13:12:02;5.93;;;3.80;;
2564;SDS011;1292;48.020;7.822;2023-01-29T13:14:40;7.30;;;5.27;;
2564;SDS011;1292;48.020;7.822;2023-01-29T13:17:14;5.70;;;4.57;;
2564;SDS011;1292;48.020;7.822;2023-01-29T13:19:47;6.17;;;4.20;;
2564;SDS011;1292;48.020;7.822;2023-01-29T13:22:18;7.47;;;4.53;;
2564;SDS011;1292;48.020;7.822;2023-01-29T13:24:48;6.37;;;4.53;;
2564;SDS011;1292;48.020;7.822;2023-01-29T13:27:19;4.63;;;4.23;;
2564;SDS011;1292;48.020;7.822;2023-01-29T13:29:49;8.30;;;5.77;;
2564;SDS011;1292;48.020;7.822;2023-01-29T13:32:22;5.83;;;4.80;;
2564;SDS011;1292;48.020;7.822;2023-01-29T13:34:51;12.73;;;10.27;;
2564;SDS011;1292;48.020;7.822;2023-01-29T13:37:23;11.07;;;7.50;;
2564;SDS011;1292;48.020;7.822;2023-01-29T13:39:57;7.63;;;5.80;;
2564;SDS011;1292;48.020;7.822;2023-01-29T13:42:32;8.27;;;5.77;;
2564;SDS011;1292;48.020;7.822;2023-01-29T13:45:05;7.67;;;5.60;;
2564;SDS011;1292;48.020;7.822;2023-01-29T13:47:35;7.03;;;5.20;;
2564;SDS011;1292;48.020;7.822;2023-01-29T13:50:05;5.73;;;5.13;;
2564;SDS011;1292;48.020;7.822;2023-01-29T13:52:35;6.90;;;5.40;;
2564;SDS011;1292;48.020;7.822;2023-01-29T13:55:08;9.37;;;5.73;;
2564;SDS011;1292;48.020;7.822;2023-01-29T13:57:53;7.70;;;6.60;;
2564;SDS011;1292;48.020;7.822;2023-01-29T14:06:34;8.80;;;5.90;;
2564;SDS011;1292;48.020;7.822;2023-01-29T14:11:56;9.77;;;5.27;;
2564;SDS011;1292;48.020;7.822;2023-01-29T14:17:16;8.50;;;6.63;;
2564;SDS011;1292;48.020;7.822;2023-01-29T14:19:47;9.53;;;7.03;;
2564;SDS011;1292;48.020;7.822;2023-01-29T14:22:18;9.23;;;7.37;;
2564;SDS011;1292;48.020;7.822;2023-01-29T14:24:47;8.40;;;6.67;;
2564;SDS011;1292;48.020;7.822;2023-01-29T14:27:17;6.37;;;5.37;;
2564;SDS011;1292;48.020;7.822;2023-01-29T14:29:46;8.87;;;6.57;;
2564;SDS011;1292;48.020;7.822;2023-01-29T14:32:17;8.67;;;5.83;;
2564;SDS011;1292;48.020;7.822;2023-01-29T14:34:50;8.17;;;5.97;;
2564;SDS011;1292;48.020;7.822;2023-01-29T14:37:24;5.60;;;4.90;;
2564;SDS011;1292;48.020;7.822;2023-01-29T14:39:57;6.67;;;6.07;;
2564;SDS011;1292;48.020;7.822;2023-01-29T14:42:34;8.03;;;7.03;;
2564;SDS011;1292;48.020;7.822;2023-01-29T14:45:07;9.00;;;6.60;;
2564;SDS011;1292;48.020;7.822;2023-01-29T14:47:59;7.00;;;6.30;;
2564;SDS011;1292;48.020;7.822;2023-01-29T14:50:46;13.50;;;9.03;;
2564;SDS011;1292;48.020;7.822;2023-01-29T14:53:20;16.33;;;9.53;;
2564;SDS011;1292;48.020;7.822;2023-01-29T14:55:51;11.47;;;8.10;;
2564;SDS011;1292;48.020;7.822;2023-01-29T14:58:25;6.27;;;4.73;;
2564;SDS011;1292;48.020;7.822;2023-01-29T15:00:58;8.90;;;6.07;;
2564;SDS011;1292;48.020;7.822;2023-01-29T15:03:33;8.33;;;5.80;;
2564;SDS011;1292;48.020;7.822;2023-01-29T15:06:06;10.60;;;6.83;;
2564;SDS011;1292;48.020;7.822;2023-01-29T15:08:40;11.23;;;7.73;;
2564;SDS011;1292;48.020;7.822;2023-01-29T15:11:13;9.90;;;7.27;;
2564;SDS011;1292;48.020;7.822;2023-01-29T15:14:04;9.13;;;6.93;;
2564;SDS011;1292;48.020;7.822;2023-01-29T15:16:42;9.63;;;5.77;;
2564;SDS011;1292;48.020;7.822;2023-01-29T15:19:15;8.00;;;5.50;;
2564;SDS011;1292;48.020;7.822;2023-01-29T15:22:07;8.20;;;6.00;;
2564;SDS011;1292;48.020;7.822;2023-01-29T15:24:36;9.13;;;5.97;;
2564;SDS011;1292;48.020;7.822;2023-01-29T15:27:04;6.20;;;5.33;;
2564;SDS011;1292;48.020;7.822;2023-01-29T15:29:35;8.27;;;6.47;;
2564;SDS011;1292;48.020;7.822;2023-01-29T15:32:03;9.17;;;6.90;;
2564;SDS011;1292;48.020;7.822;2023-01-29T15:34:31;6.13;;;5.20;;
2564;SDS011;1292;48.020;7.822;2023-01-29T15:36:58;10.40;;;6.57;;
2564;SDS011;1292;48.020;7.822;2023-01-29T15:39:28;9.93;;;6.90;;
2564;SDS011;1292;48.020;7.822;2023-01-29T15:42:10;7.27;;;5.70;;
2564;SDS011;1292;48.020;7.822;2023-01-29T15:44:43;12.00;;;7.57;;
2564;SDS011;1292;48.020;7.822;2023-01-29T15:47:10;8.27;;;5.90;;
2564;SDS011;1292;48.020;7.822;2023-01-29T15:49:38;5.80;;;4.97;;
2564;SDS011;1292;48.020;7.822;2023-01-29T15:52:07;7.23;;;5.10;;
2564;SDS011;1292;48.020;7.822;2023-01-29T15:54:42;7.70;;;5.97;;
2564;SDS011;1292;48.020;7.822;2023-01-29T15:57:13;7.40;;;5.60;;
2564;SDS011;1292;48.020;7.822;2023-01-29T15:59:45;9.77;;;6.13;;
2564;SDS011;1292;48.020;7.822;2023-01-29T16:02:27;10.13;;;7.23;;
2564;SDS011;1292;48.020;7.822;2023-01-29T16:05:05;7.90;;;6.53;;
2564;SDS011;1292;48.020;7.822;2023-01-29T16:07:36;14.73;;;8.20;;
2564;SDS011;1292;48.020;7.822;2023-01-29T16:10:05;11.30;;;8.17;;
2564;SDS011;1292;48.020;7.822;2023-01-29T16:12:39;11.63;;;6.60;;
2564;SDS011;1292;48.020;7.822;2023-01-29T16:15:09;8.83;;;6.50;;
2564;SDS011;1292;48.020;7.822;2023-01-29T16:17:46;10.27;;;6.50;;
2564;SDS011;1292;48.020;7.822;2023-01-29T16:20:19;10.23;;;7.13;;
2564;SDS011;1292;48.020;7.822;2023-01-29T16:22:55;6.30;;;5.67;;
2564;SDS011;1292;48.020;7.822;2023-01-29T16:25:24;11.90;;;8.20;;
2564;SDS011;1292;48.020;7.822;2023-01-29T16:27:51;8.77;;;6.67;;
2564;SDS011;1292;48.020;7.822;2023-01-29T16:30:18;8.70;;;7.20;;
2564;SDS011;1292;48.020;7.822;2023-01-29T16:32:49;8.00;;;6.03;;
2564;SDS011;1292;48.020;7.822;2023-01-29T16:35:16;9.20;;;6.93;;
2564;SDS011;1292;48.020;7.822;2023-01-29T16:37:45;11.83;;;7.40;;
2564;SDS011;1292;48.020;7.822;2023-01-29T16:40:14;7.97;;;6.90;;
2564;SDS011;1292;48.020;7.822;2023-01-29T16:43:04;8.13;;;6.33;;
2564;SDS011;1292;48.020;7.822;2023-01-29T16:46:04;9.73;;;6.27;;
2564;SDS011;1292;48.020;7.822;2023-01-29T16:48:40;6.40;;;5.67;;
2564;SDS011;1292;48.020;7.822;2023-01-29T16:51:11;8.73;;;7.00;;
2564;SDS011;1292;48.020;7.822;2023-01-29T16:53:40;8.00;;;6.80;;
2564;SDS011;1292;48.020;7.822;2023-01-29T16:56:20;10.13;;;6.10;;
2564;SDS011;1292;48.020;7.822;2023-01-29T16:58:49;7.90;;;6.00;;
2564;SDS011;1292;48.020;7.822;2023-01-29T17:01:17;9.80;;;6.40;;
2564;SDS011;1292;48.020;7.822;2023-01-29T17:03:46;7.80;;;6.60;;
2564;SDS011;1292;48.020;7.822;2023-01-29T17:06:22;10.13;;;6.13;;
2564;SDS011;1292;48.020;7.822;2023-01-29T17:08:51;11.00;;;6.90;;
2564;SDS011;1292;48.020;7.822;2023-01-29T17:11:26;10.43;;;6.93;;
2564;SDS011;1292;48.020;7.822;2023-01-29T17:13:59;8.60;;;5.87;;
2564;SDS011;1292;48.020;7.822;2023-01-29T17:16:27;10.37;;;7.50;;
2564;SDS011;1292;48.020;7.822;2023-01-29T17:18:55;10.47;;;8.80;;
2564;SDS011;1292;48.020;7.822;2023-01-29T17:21:22;10.90;;;8.40;;
2564;SDS011;1292;48.020;7.822;2023-01-29T17:23:50;14.07;;;8.87;;
2564;SDS011;1292;48.020;7.822;2023-01-29T17:26:17;11.90;;;8.23;;
2564;SDS011;1292;48.020;7.822;2023-01-29T17:28:45;16.13;;;9.97;;
2564;SDS011;1292;48.020;7.822;2023-01-29T17:31:16;10.03;;;9.03;;
2564;SDS011;1292;48.020;7.822;2023-01-29T17:33:43;12.60;;;8.47;;
2564;SDS011;1292;48.020;7.822;2023-01-29T17:36:11;14.70;;;10.20;;
2564;SDS011;1292;48.020;7.822;2023-01-29T17:38:40;16.03;;;9.60;;
2564;SDS011;1292;48.020;7.822;2023-01-29T17:41:08;15.97;;;10.00;;
2564;SDS011;1292;48.020;7.822;2023-01-29T17:43:39;13.73;;;9.70;;
2564;SDS011;1292;48.020;7.822;2023-01-29T17:46:07;12.60;;;9.17;;
2564;SDS011;1292;48.020;7.822;2023-01-29T17:48:38;15.73;;;10.00;;
2564;SDS011;1292;48.020;7.822;2023-01-29T17:51:08;13.27;;;7.97;;
2564;SDS011;1292;48.020;7.822;2023-01-29T17:53:38;12.60;;;9.77;;
2564;SDS011;1292;48.020;7.822;2023-01-29T17:56:08;13.80;;;9.40;;
2564;SDS011;1292;48.020;7.822;2023-01-29T17:58:39;12.80;;;9.60;;
2564;SDS011;1292;48.020;7.822;2023-01-29T18:01:07;11.80;;;8.60;;
2564;SDS011;1292;48.020;7.822;2023-01-29T18:03:34;11.87;;;8.47;;
2564;SDS011;1292;48.020;7.822;2023-01-29T18:06:02;15.53;;;9.77;;
2564;SDS011;1292;48.020;7.822;2023-01-29T18:08:33;14.30;;;11.53;;
2564;SDS011;1292;48.020;7.822;2023-01-29T18:11:01;20.57;;;12.80;;
2564;SDS011;1292;48.020;7.822;2023-01-29T18:13:28;20.10;;;12.60;;
2564;SDS011;1292;48.020;7.822;2023-01-29T18:15:55;16.73;;;11.73;;
2564;SDS011;1292;48.020;7.822;2023-01-29T18:18:22;18.73;;;12.00;;
2564;SDS011;1292;48.020;7.822;2023-01-29T18:20:49;18.73;;;13.17;;
2564;SDS011;1292;48.020;7.822;2023-01-29T18:23:17;17.30;;;13.10;;
2564;SDS011;1292;48.020;7.822;2023-01-29T18:25:44;20.63;;;15.13;;
2564;SDS011;1292;48.020;7.822;2023-01-29T18:28:12;19.80;;;14.37;;
2564;SDS011;1292;48.020;7.822;2023-01-29T18:30:40;25.07;;;15.33;;
2564;SDS011;1292;48.020;7.822;2023-01-29T18:33:09;21.20;;;14.47;;
2564;SDS011;1292;48.020;7.822;2023-01-29T18:35:35;19.13;;;14.07;;
2564;SDS011;1292;48.020;7.822;2023-01-29T18:38:02;24.47;;;15.90;;
2564;SDS011;1292;48.020;7.822;2023-01-29T18:40:31;22.27;;;15.20;;
2564;SDS011;1292;48.020;7.822;2023-01-29T18:42:58;21.40;;;13.60;;
2564;SDS011;1292;48.020;7.822;2023-01-29T18:45:25;18.97;;;14.13;;
2564;SDS011;1292;48.020;7.822;2023-01-29T18:47:52;23.73;;;15.13;;
2564;SDS011;1292;48.020;7.822;2023-01-29T18:50:19;21.83;;;14.83;;
2564;SDS011;1292;48.020;7.822;2023-01-29T18:52:49;24.10;;;17.03;;
2564;SDS011;1292;48.020;7.822;2023-01-29T18:55:16;27.47;;;16.97;;
2564;SDS011;1292;48.020;7.822;2023-01-29T18:57:44;25.13;;;17.60;;
2564;SDS011;1292;48.020;7.822;2023-01-29T19:00:11;23.47;;;15.20;;
2564;SDS011;1292;48.020;7.822;2023-01-29T19:02:38;24.90;;;16.63;;
2564;SDS011;1292;48.020;7.822;2023-01-29T19:05:07;32.13;;;17.23;;
2564;SDS011;1292;48.020;7.822;2023-01-29T19:07:34;25.23;;;16.13;;
2564;SDS011;1292;48.020;7.822;2023-01-29T19:10:01;20.10;;;14.97;;
2564;SDS011;1292;48.020;7.822;2023-01-29T19:12:30;22.90;;;14.83;;
2564;SDS011;1292;48.020;7.822;2023-01-29T19:14:59;23.20;;;14.67;;
2564;SDS011;1292;48.020;7.822;2023-01-29T19:17:26;21.40;;;14.53;;
2564;SDS011;1292;48.020;7.822;2023-01-29T19:19:53;23.80;;;14.57;;
2564;SDS011;1292;48.020;7.822;2023-01-29T19:22:25;22.03;;;13.73;;
2564;SDS011;1292;48.020;7.822;2023-01-29T19:24:53;24.43;;;14.97;;
2564;SDS011;1292;48.020;7.822;2023-01-29T19:27:20;23.90;;;14.70;;
2564;SDS011;1292;48.020;7.822;2023-01-29T19:29:47;22.73;;;15.00;;
2564;SDS011;1292;48.020;7.822;2023-01-29T19:32:16;18.97;;;14.23;;
2564;SDS011;1292;48.020;7.822;2023-01-29T19:34:43;19.00;;;13.27;;
2564;SDS011;1292;48.020;7.822;2023-01-29T19:37:10;22.93;;;13.13;;
2564;SDS011;1292;48.020;7.822;2023-01-29T19:39:37;22.47;;;14.07;;
2564;SDS011;1292;48.020;7.822;2023-01-29T19:42:04;18.83;;;13.40;;
2564;SDS011;1292;48.020;7.822;2023-01-29T19:44:30;21.13;;;14.70;;
2564;SDS011;1292;48.020;7.822;2023-01-29T19:46:57;21.80;;;15.07;;
2564;SDS011;1292;48.020;7.822;2023-01-29T19:49:25;24.13;;;16.00;;
2564;SDS011;1292;48.020;7.822;2023-01-29T19:51:52;29.53;;;15.57;;
2564;SDS011;1292;48.020;7.822;2023-01-29T19:54:22;22.20;;;15.90;;
2564;SDS011;1292;48.020;7.822;2023-01-29T19:56:51;22.63;;;15.30;;
2564;SDS011;1292;48.020;7.822;2023-01-29T19:59:18;25.60;;;14.50;;
2564;SDS011;1292;48.020;7.822;2023-01-29T20:01:45;20.07;;;15.70;;
2564;SDS011;1292;48.020;7.822;2023-01-29T20:04:12;21.77;;;17.40;;
2564;SDS011;1292;48.020;7.822;2023-01-29T20:06:40;20.63;;;14.33;;
2564;SDS011;1292;48.020;7.822;2023-01-29T20:09:07;21.23;;;14.80;;
2564;SDS011;1292;48.020;7.822;2023-01-29T20:11:33;28.70;;;15.80;;
2564;SDS011;1292;48.020;7.822;2023-01-29T20:14:00;21.50;;;14.77;;
2564;SDS011;1292;48.020;7.822;2023-01-29T20:16:27;21.63;;;15.37;;
2564;SDS011;1292;48.020;7.822;2023-01-29T20:18:54;34.07;;;16.63;;
2564;SDS011;1292;48.020;7.822;2023-01-29T20:21:21;23.37;;;16.67;;
2564;SDS011;1292;48.020;7.822;2023-01-29T20:23:49;26.57;;;16.87;;
2564;SDS011;1292;48.020;7.822;2023-01-29T20:26:17;24.90;;;16.10;;
2564;SDS011;1292;48.020;7.822;2023-01-29T20:28:44;28.97;;;16.47;;
2564;SDS011;1292;48.020;7.822;2023-01-29T20:31:12;24.30;;;15.57;;
2564;SDS011;1292;48.020;7.822;2023-01-29T20:33:39;23.10;;;14.67;;
2564;SDS011;1292;48.020;7.822;2023-01-29T20:36:06;17.37;;;11.87;;
2564;SDS011;1292;48.020;7.822;2023-01-29T20:38:35;18.80;;;12.37;;
2564;SDS011;1292;48.020;7.822;2023-01-29T20:41:04;22.30;;;13.93;;
2564;SDS011;1292;48.020;7.822;2023-01-29T20:43:31;21.73;;;13.67;;
2564;SDS011;1292;48.020;7.822;2023-01-29T20:45:59;14.60;;;10.23;;
2564;SDS011;1292;48.020;7.822;2023-01-29T20:48:26;16.17;;;10.10;;
2564;SDS011;1292;48.020;7.822;2023-01-29T20:50:53;18.33;;;10.57;;
2564;SDS011;1292;48.020;7.822;2023-01-29T20:53:21;22.50;;;12.57;;
2564;SDS011;1292;48.020;7.822;2023-01-29T20:55:48;20.30;;;11.30;;
2564;SDS011;1292;48.020;7.822;2023-01-29T20:58:16;16.47;;;12.37;;
2564;SDS011;1292;48.020;7.822;2023-01-29T21:00:43;20.10;;;10.93;;
2564;SDS011;1292;48.020;7.822;2023-01-29T21:03:10;14.67;;;11.03;;
2564;SDS011;1292;48.020;7.822;2023-01-29T21:05:37;12.90;;;9.27;;
2564;SDS011;1292;48.020;7.822;2023-01-29T21:08:04;13.63;;;10.13;;
2564;SDS011;1292;48.020;7.822;2023-01-29T21:10:31;13.83;;;10.47;;
2564;SDS011;1292;48.020;7.822;2023-01-29T21:12:57;12.20;;;9.30;;
2564;SDS011;1292;48.020;7.822;2023-01-29T21:15:26;11.53;;;7.97;;
2564;SDS011;1292;48.020;7.822;2023-01-29T21:17:52;12.77;;;8.90;;
2564;SDS011;1292;48.020;7.822;2023-01-29T21:20:19;10.93;;;8.83;;
2564;SDS011;1292;48.020;7.822;2023-01-29T21:22:46;12.77;;;10.40;;
2564;SDS011;1292;48.020;7.822;2023-01-29T21:25:13;13.13;;;9.77;;
2564;SDS011;1292;48.020;7.822;2023-01-29T21:27:41;11.67;;;8.97;;
2564;SDS011;1292;48.020;7.822;2023-01-29T21:30:08;13.83;;;9.50;;
2564;SDS011;1292;48.020;7.822;2023-01-29T21:32:37;14.07;;;8.70;;
2564;SDS011;1292;48.020;7.822;2023-01-29T21:35:04;13.93;;;8.00;;
2564;SDS011;1292;48.020;7.822;2023-01-29T21:37:32;13.87;;;8.53;;
2564;SDS011;1292;48.020;7.822;2023-01-29T21:40:01;10.90;;;7.37;;
2564;SDS011;1292;48.020;7.822;2023-01-29T21:42:28;9.80;;;7.67;;
2564;SDS011;1292;48.020;7.822;2023-01-29T21:45:12;9.40;;;6.47;;
2564;SDS011;1292;48.020;7.822;2023-01-29T21:47:40;11.90;;;8.70;;
2564;SDS011;1292;48.020;7.822;2023-01-29T21:50:08;10.73;;;8.57;;
2564;SDS011;1292;48.020;7.822;2023-01-29T21:52:35;11.77;;;7.67;;
2564;SDS011;1292;48.020;7.822;2023-01-29T21:55:03;10.97;;;8.30;;
2564;SDS011;1292;48.020;7.822;2023-01-29T21:57:30;15.50;;;7.87;;
2564;SDS011;1292;48.020;7.822;2023-01-29T21:59:57;17.27;;;8.77;;
